Time;durP1;ratioP1;P1;durP2;ratioP2;P2;SDS_P1;SDS_P2;PMS_P1;PMS_P2;Temp;Humidity;BMP_temperature;BMP_pressure;BME280_temperature;BME280_humidity;BME280_pressure;Samples;Min_cycle;Max_cycle;Signal;HPM_P1;HPM_P2
2021/10/13 00:02:15;;;;;;;187.85;131.52;;;11.10;95.80;;;;;;5057745;28;20455;-77
2021/10/13 00:04:41;;;;;;;195.70;134.82;;;11.10;95.80;;;;;;5057646;28;20495;-76
2021/10/13 00:07:07;;;;;;;202.45;141.73;;;11.10;96.00;;;;;;5057703;28;20032;-77
2021/10/13 00:09:32;;;;;;;166.75;114.55;;;11.10;96.20;;;;;;5075674;28;20043;-76
2021/10/13 00:11:58;;;;;;;173.13;122.35;;;11.20;95.80;;;;;;5057724;28;20025;-76
2021/10/13 00:14:24;;;;;;;148.23;106.97;;;11.10;95.90;;;;;;5075104;28;20032;-76
2021/10/13 00:16:55;;;;;;;173.05;120.25;;;11.10;95.80;;;;;;5075519;28;20039;-76
2021/10/13 00:19:21;;;;;;;158.25;110.43;;;11.10;96.10;;;;;;5057348;28;20078;-76
2021/10/13 00:21:47;;;;;;;147.52;105.68;;;11.10;96.00;;;;;;5057071;28;20024;-77
2021/10/13 00:24:13;;;;;;;170.20;117.47;;;11.10;95.70;;;;;;5057602;28;20474;-77
2021/10/13 00:26:38;;;;;;;158.15;114.82;;;11.20;95.70;;;;;;5057402;28;20043;-77
2021/10/13 00:29:04;;;;;;;178.27;124.57;;;11.20;95.70;;;;;;5056885;28;20028;-76
2021/10/13 00:31:30;;;;;;;135.98;96.35;;;11.10;95.70;;;;;;5057373;28;20048;-77
2021/10/13 00:33:55;;;;;;;160.57;112.85;;;11.10;95.40;;;;;;5081299;28;20032;-77
2021/10/13 00:36:21;;;;;;;166.90;112.22;;;11.10;95.30;;;;;;5058674;28;20032;-77
2021/10/13 00:38:47;;;;;;;166.48;114.43;;;11.10;95.00;;;;;;5057006;28;20034;-77
2021/10/13 00:41:14;;;;;;;161.35;112.53;;;11.10;95.00;;;;;;5063048;28;20041;-76
2021/10/13 00:43:42;;;;;;;139.52;92.28;;;11.20;95.30;;;;;;5056486;28;20035;-76
2021/10/13 00:46:08;;;;;;;145.63;101.97;;;11.20;95.10;;;;;;5056715;28;20037;-77
2021/10/13 00:48:34;;;;;;;127.00;88.20;;;11.20;95.50;;;;;;5056954;28;20035;-76
2021/10/13 00:50:59;;;;;;;104.38;76.03;;;11.20;95.60;;;;;;5056744;28;20490;-77
2021/10/13 00:53:26;;;;;;;107.57;76.07;;;11.20;95.40;;;;;;5074656;28;20032;-77
2021/10/13 00:55:56;;;;;;;83.60;60.38;;;11.20;95.40;;;;;;5059496;28;20041;-76
2021/10/13 00:58:23;;;;;;;100.07;68.85;;;11.20;95.00;;;;;;5056877;28;20748;-77
2021/10/13 01:00:56;;;;;;;92.28;64.88;;;11.20;94.80;;;;;;5056343;28;20441;-77
2021/10/13 01:03:34;;;;;;;86.65;61.70;;;11.20;94.70;;;;;;5053350;28;20084;-76
2021/10/13 01:06:08;;;;;;;88.50;63.83;;;11.20;94.70;;;;;;5045457;28;20434;-77
2021/10/13 01:09:24;;;;;;;81.53;58.78;;;11.20;94.60;;;;;;5032710;28;20593;-76
2021/10/13 01:11:52;;;;;;;85.70;61.90;;;11.20;94.20;;;;;;5032549;28;20064;-77
2021/10/13 01:14:49;;;;;;;81.43;59.35;;;11.20;94.40;;;;;;5033649;28;20021;-76
2021/10/13 01:17:35;;;;;;;73.88;55.88;;;11.20;94.30;;;;;;5030933;28;20033;-77
2021/10/13 01:20:22;;;;;;;84.82;60.25;;;11.20;94.40;;;;;;5042127;28;20029;-77
2021/10/13 01:23:00;;;;;;;87.28;67.78;;;11.20;94.80;;;;;;5040644;28;20107;-77
2021/10/13 01:25:49;;;;;;;82.75;61.70;;;11.20;94.60;;;;;;5042590;28;20126;-77
2021/10/13 01:28:22;;;;;;;75.43;56.67;;;11.20;94.30;;;;;;5045194;28;20029;-77
2021/10/13 01:31:03;;;;;;;77.32;57.08;;;11.10;94.80;;;;;;5044528;28;20428;-77
2021/10/13 01:33:36;;;;;;;73.68;54.92;;;11.00;95.10;;;;;;5041200;28;20526;-76
2021/10/13 01:36:05;;;;;;;71.53;52.20;;;11.00;95.40;;;;;;5044593;28;20032;-77
2021/10/13 01:38:37;;;;;;;77.93;54.70;;;11.00;95.70;;;;;;5033202;28;20053;-77
2021/10/13 01:41:04;;;;;;;68.50;50.55;;;11.00;96.10;;;;;;5037194;28;20059;-77
2021/10/13 01:43:35;;;;;;;68.97;51.47;;;11.00;96.30;;;;;;5039268;28;20040;-77
2021/10/13 01:46:03;;;;;;;71.78;54.38;;;11.00;96.20;;;;;;5040019;28;20040;-77
2021/10/13 01:48:32;;;;;;;62.20;46.53;;;11.00;96.30;;;;;;5036538;28;20063;-78
2021/10/13 01:50:58;;;;;;;71.28;52.88;;;11.00;96.20;;;;;;5039499;28;20022;-77
2021/10/13 01:53:25;;;;;;;64.20;48.65;;;11.00;96.30;;;;;;5047255;28;20028;-76
2021/10/13 01:55:51;;;;;;;65.65;49.10;;;11.00;96.20;;;;;;5035347;28;20112;-77
2021/10/13 01:58:20;;;;;;;62.63;48.30;;;11.00;96.20;;;;;;5039260;28;20467;-77
2021/10/13 02:00:47;;;;;;;62.75;46.97;;;11.00;96.20;;;;;;5041549;28;20674;-77
2021/10/13 02:03:14;;;;;;;61.05;48.58;;;11.00;95.90;;;;;;5042645;28;20052;-68
2021/10/13 02:05:41;;;;;;;62.92;45.10;;;11.00;96.00;;;;;;5073834;28;20040;-75
2021/10/13 02:08:08;;;;;;;61.40;46.63;;;11.00;95.90;;;;;;5055923;28;20028;-75
2021/10/13 02:10:36;;;;;;;61.88;46.90;;;11.00;96.10;;;;;;5055983;28;20093;-75
2021/10/13 02:13:04;;;;;;;58.35;44.38;;;11.00;96.00;;;;;;5055630;28;20054;-75
2021/10/13 02:15:32;;;;;;;63.70;47.10;;;11.00;95.80;;;;;;5059919;28;20038;-74
2021/10/13 02:18:00;;;;;;;65.97;48.22;;;11.00;95.90;;;;;;5076787;28;20047;-75
2021/10/13 02:20:27;;;;;;;57.47;44.17;;;11.00;96.40;;;;;;5073846;28;20089;-75
2021/10/13 02:22:56;;;;;;;67.15;49.53;;;11.00;96.20;;;;;;5054987;28;20039;-74
2021/10/13 02:25:22;;;;;;;60.00;44.80;;;11.00;96.40;;;;;;5070560;28;20028;-74
2021/10/13 02:27:56;;;;;;;64.07;47.63;;;11.00;96.10;;;;;;5073159;28;20059;-75
2021/10/13 02:30:22;;;;;;;64.85;48.88;;;11.00;96.50;;;;;;5055181;28;20032;-75
2021/10/13 02:32:48;;;;;;;69.43;51.65;;;11.00;96.70;;;;;;5072988;28;20020;-75
2021/10/13 02:35:14;;;;;;;67.05;51.50;;;11.00;97.00;;;;;;5054663;28;20025;-75
2021/10/13 02:37:40;;;;;;;65.25;49.35;;;10.90;97.00;;;;;;5071290;28;20025;-75
2021/10/13 02:40:07;;;;;;;66.95;50.40;;;10.90;97.10;;;;;;5072727;28;20025;-75
2021/10/13 02:42:33;;;;;;;65.18;47.88;;;10.90;97.10;;;;;;5054735;28;20391;-75
2021/10/13 02:44:59;;;;;;;65.00;47.72;;;10.90;97.10;;;;;;5057188;28;20492;-75
2021/10/13 02:47:37;;;;;;;60.30;46.72;;;10.90;97.20;;;;;;5054540;28;20072;-73
2021/10/13 02:50:22;;;;;;;66.20;46.55;;;10.90;97.20;;;;;;5072844;28;20036;-75
2021/10/13 02:53:13;;;;;;;66.00;49.10;;;10.80;97.30;;;;;;5048557;28;20031;-75
2021/10/13 02:55:45;;;;;;;64.72;47.42;;;10.80;97.10;;;;;;5046668;28;20029;-75
2021/10/13 02:58:49;;;;;;;66.30;49.10;;;10.80;97.50;;;;;;5054520;28;20028;-75
2021/10/13 03:01:16;;;;;;;62.67;48.13;;;10.80;97.40;;;;;;4955109;28;20098;-75
2021/10/13 03:03:51;;;;;;;66.20;49.35;;;10.80;97.90;;;;;;5034475;28;20045;-75
2021/10/13 03:06:18;;;;;;;72.97;53.33;;;10.80;97.90;;;;;;5054506;28;20032;-75
2021/10/13 03:08:48;;;;;;;72.53;53.83;;;10.80;98.10;;;;;;5054575;28;20051;-75
2021/10/13 03:11:16;;;;;;;60.80;46.72;;;10.80;98.10;;;;;;5072264;28;20066;-75
2021/10/13 03:13:47;;;;;;;60.47;46.50;;;10.80;97.90;;;;;;5057137;28;20490;-75
2021/10/13 03:16:14;;;;;;;56.88;43.47;;;10.80;98.00;;;;;;5072491;28;20371;-75
2021/10/13 03:18:42;;;;;;;57.28;42.78;;;10.80;98.00;;;;;;5072229;28;20056;-75
2021/10/13 03:21:09;;;;;;;54.95;41.90;;;10.80;97.80;;;;;;5054239;28;20017;-75
2021/10/13 03:23:35;;;;;;;57.00;42.60;;;10.70;97.90;;;;;;5072356;28;20429;-75
2021/10/13 03:26:06;;;;;;;51.50;40.20;;;10.70;97.90;;;;;;5071830;28;20032;-75
2021/10/13 03:28:36;;;;;;;58.63;41.10;;;10.70;98.10;;;;;;5054529;28;20095;-74
2021/10/13 03:31:02;;;;;;;52.70;39.47;;;10.70;98.10;;;;;;5054108;28;20544;-74
2021/10/13 03:33:28;;;;;;;55.70;39.28;;;10.70;98.20;;;;;;5054340;28;20028;-76
2021/10/13 03:35:54;;;;;;;57.30;41.75;;;10.70;98.40;;;;;;5054056;28;20044;-76
2021/10/13 03:38:20;;;;;;;58.83;42.47;;;10.70;98.60;;;;;;5053133;28;20067;-76
2021/10/13 03:40:46;;;;;;;57.17;40.13;;;10.70;98.80;;;;;;5072095;28;20050;-76
2021/10/13 03:43:11;;;;;;;55.30;40.53;;;10.70;99.00;;;;;;5055136;28;20112;-75
2021/10/13 03:45:37;;;;;;;55.75;40.80;;;10.60;99.10;;;;;;5072153;28;20449;-75
2021/10/13 03:48:03;;;;;;;49.45;38.28;;;10.60;99.10;;;;;;5054045;28;20035;-76
2021/10/13 03:50:29;;;;;;;53.15;39.58;;;10.60;99.10;;;;;;5054266;28;20115;-75
2021/10/13 03:52:55;;;;;;;54.05;40.90;;;10.60;99.10;;;;;;5071623;28;20067;-76
2021/10/13 03:55:21;;;;;;;54.58;40.83;;;10.60;99.20;;;;;;5071860;28;20085;-76
2021/10/13 03:57:47;;;;;;;50.88;37.67;;;10.60;99.30;;;;;;5071543;28;20033;-75
2021/10/13 04:00:16;;;;;;;51.58;39.83;;;10.60;99.20;;;;;;5072343;28;20025;-76
2021/10/13 04:02:42;;;;;;;53.38;40.03;;;10.60;99.30;;;;;;5053533;28;20432;-74
2021/10/13 04:05:10;;;;;;;55.72;41.90;;;10.60;99.40;;;;;;5071441;28;20119;-76
2021/10/13 04:07:37;;;;;;;57.08;41.88;;;10.60;99.60;;;;;;5056291;28;20041;-76
2021/10/13 04:10:05;;;;;;;55.30;39.95;;;10.60;99.50;;;;;;5057623;28;20032;-76
2021/10/13 04:12:30;;;;;;;55.58;40.35;;;10.60;99.50;;;;;;5060430;28;20032;-76
2021/10/13 04:14:56;;;;;;;53.85;40.33;;;10.60;99.70;;;;;;5075391;28;20031;-76
2021/10/13 04:17:22;;;;;;;52.50;39.22;;;10.60;99.40;;;;;;5078091;28;20077;-75
2021/10/13 04:19:47;;;;;;;56.40;41.22;;;10.60;99.40;;;;;;5078705;28;20055;-76
2021/10/13 04:22:13;;;;;;;56.20;42.25;;;10.60;99.50;;;;;;5069243;28;20020;-76
2021/10/13 04:24:39;;;;;;;61.13;45.47;;;10.60;99.50;;;;;;5072556;28;20371;-76
2021/10/13 04:27:04;;;;;;;56.33;43.63;;;10.60;99.40;;;;;;5051089;28;20152;-74
2021/10/13 04:29:30;;;;;;;62.30;46.92;;;10.60;99.20;;;;;;5078425;28;20028;-76
2021/10/13 04:31:56;;;;;;;57.13;43.95;;;10.60;99.30;;;;;;5057072;28;20478;-76
2021/10/13 04:34:22;;;;;;;58.45;43.58;;;10.60;99.30;;;;;;5057502;28;20111;-75
2021/10/13 04:36:47;;;;;;;60.50;44.97;;;10.70;99.30;;;;;;5081468;28;20024;-76
2021/10/13 04:39:13;;;;;;;54.60;42.58;;;10.70;99.50;;;;;;5078577;28;20039;-75
2021/10/13 04:41:39;;;;;;;58.85;45.50;;;10.70;99.30;;;;;;5062947;28;20471;-70
2021/10/13 04:44:05;;;;;;;55.13;42.28;;;10.70;99.50;;;;;;5050771;28;20028;-73
2021/10/13 04:46:30;;;;;;;55.00;42.78;;;10.70;99.50;;;;;;5083712;28;20470;-74
2021/10/13 04:48:56;;;;;;;55.60;42.33;;;10.70;99.50;;;;;;5056767;28;20028;-73
2021/10/13 04:51:21;;;;;;;55.13;42.13;;;10.70;99.40;;;;;;5055637;28;20075;-74
2021/10/13 04:53:47;;;;;;;55.95;41.78;;;10.70;99.40;;;;;;5074803;28;20032;-74
2021/10/13 04:56:13;;;;;;;55.38;42.70;;;10.70;99.40;;;;;;5065037;28;20067;-73
2021/10/13 04:58:39;;;;;;;59.65;43.90;;;10.70;99.40;;;;;;5058859;28;20094;-74
2021/10/13 05:01:07;;;;;;;55.75;42.03;;;10.70;99.40;;;;;;5073099;28;20033;-74
2021/10/13 05:03:33;;;;;;;57.63;42.88;;;10.70;99.20;;;;;;5045945;28;20072;-73
2021/10/13 05:05:59;;;;;;;59.30;43.50;;;10.70;99.00;;;;;;5070403;28;20094;-73
2021/10/13 05:08:24;;;;;;;60.60;44.28;;;10.70;98.70;;;;;;5054981;28;20040;-72
2021/10/13 05:10:50;;;;;;;61.35;45.00;;;10.70;98.80;;;;;;5058191;28;20111;-71
2021/10/13 05:13:16;;;;;;;59.58;45.60;;;10.80;98.80;;;;;;5061006;28;20020;-70
2021/10/13 05:15:43;;;;;;;66.35;47.60;;;10.70;98.60;;;;;;5053965;28;20178;-72
2021/10/13 05:18:10;;;;;;;65.13;48.72;;;10.70;98.40;;;;;;5069963;28;20059;-72
2021/10/13 05:20:36;;;;;;;61.38;46.20;;;10.60;98.20;;;;;;5053536;28;20394;-73
2021/10/13 05:23:02;;;;;;;65.22;48.97;;;10.60;97.90;;;;;;5054425;28;20105;-72
2021/10/13 05:25:28;;;;;;;65.60;49.10;;;10.60;98.00;;;;;;5073203;28;20155;-76
2021/10/13 05:27:53;;;;;;;67.85;49.25;;;10.60;97.70;;;;;;5060122;28;20027;-76
2021/10/13 05:30:19;;;;;;;70.30;50.58;;;10.60;97.60;;;;;;5057243;28;20037;-75
2021/10/13 05:32:45;;;;;;;69.00;49.97;;;10.60;97.50;;;;;;5055332;28;20028;-83
2021/10/13 05:35:10;;;;;;;69.50;50.83;;;10.60;97.90;;;;;;5055528;28;20119;-76
2021/10/13 05:37:36;;;;;;;67.07;51.08;;;10.50;97.60;;;;;;5057558;28;20082;-74
2021/10/13 05:40:03;;;;;;;75.18;53.45;;;10.50;97.70;;;;;;5053724;28;20020;-75
2021/10/13 05:42:28;;;;;;;72.63;51.95;;;10.50;97.90;;;;;;5071724;28;20036;-73
2021/10/13 05:44:54;;;;;;;73.43;51.95;;;10.50;97.90;;;;;;5073749;28;20463;-74
2021/10/13 05:47:19;;;;;;;67.70;52.10;;;10.50;97.90;;;;;;5077112;28;20037;-76
2021/10/13 05:49:46;;;;;;;73.90;53.90;;;10.50;97.80;;;;;;5074978;28;20024;-73
2021/10/13 05:52:13;;;;;;;71.90;53.22;;;10.50;97.90;;;;;;5076685;28;20054;-72
2021/10/13 05:54:40;;;;;;;74.38;54.25;;;10.50;97.90;;;;;;5055298;28;20155;-71
2021/10/13 05:57:06;;;;;;;74.55;55.10;;;10.50;97.90;;;;;;5054726;28;20020;-71
2021/10/13 05:59:32;;;;;;;78.40;56.20;;;10.40;98.10;;;;;;5072504;28;20441;-71
2021/10/13 06:01:57;;;;;;;72.40;53.53;;;10.50;98.20;;;;;;5055117;28;20078;-71
2021/10/13 06:04:23;;;;;;;76.18;57.70;;;10.50;98.10;;;;;;5052397;28;20053;-71
2021/10/13 06:06:49;;;;;;;77.68;57.25;;;10.40;98.20;;;;;;5052683;28;20065;-70
2021/10/13 06:09:14;;;;;;;83.45;59.10;;;10.50;98.50;;;;;;5052398;28;20047;-70
2021/10/13 06:11:40;;;;;;;77.90;58.83;;;10.50;98.60;;;;;;5052816;28;20025;-70
2021/10/13 06:14:06;;;;;;;78.93;56.40;;;10.50;98.80;;;;;;5053774;28;20439;-72
2021/10/13 06:16:32;;;;;;;81.28;60.10;;;10.50;98.80;;;;;;5052636;28;20029;-69
2021/10/13 06:18:57;;;;;;;81.28;59.65;;;10.50;99.20;;;;;;5047886;28;20026;-70
2021/10/13 06:21:24;;;;;;;83.90;58.40;;;10.50;99.80;;;;;;5032787;28;20120;-70
2021/10/13 06:23:50;;;;;;;82.22;57.83;;;10.50;99.40;;;;;;5033980;28;20064;-69
2021/10/13 06:26:16;;;;;;;84.72;60.40;;;10.50;99.70;;;;;;5033566;28;20036;-70
2021/10/13 06:28:43;;;;;;;85.35;60.30;;;10.50;99.60;;;;;;5033791;28;20439;-71
2021/10/13 06:31:08;;;;;;;81.68;59.28;;;10.50;99.80;;;;;;5032123;28;20132;-73
2021/10/13 06:33:36;;;;;;;81.45;58.55;;;10.50;99.70;;;;;;5034032;28;20116;-70
2021/10/13 06:36:05;;;;;;;85.13;59.70;;;10.40;99.50;;;;;;5033792;28;20025;-69
2021/10/13 06:38:31;;;;;;;86.10;59.00;;;10.40;99.50;;;;;;5033005;28;20025;-69
2021/10/13 06:40:58;;;;;;;80.00;60.05;;;10.40;99.60;;;;;;5033606;28;20052;-70
2021/10/13 06:43:24;;;;;;;81.32;58.53;;;10.40;99.70;;;;;;5033758;28;20025;-70
2021/10/13 06:45:50;;;;;;;84.03;59.78;;;10.40;99.40;;;;;;5033677;28;20029;-69
2021/10/13 06:48:15;;;;;;;82.25;59.22;;;10.40;99.30;;;;;;5031618;28;20120;-70
2021/10/13 06:50:41;;;;;;;78.00;57.90;;;10.30;99.30;;;;;;5018542;28;20026;-70
2021/10/13 06:53:07;;;;;;;77.82;57.47;;;10.40;99.50;;;;;;5013883;28;20026;-70
2021/10/13 06:55:32;;;;;;;85.00;60.28;;;10.30;99.40;;;;;;5012508;28;20109;-71
2021/10/13 06:57:58;;;;;;;80.18;58.38;;;10.40;99.50;;;;;;5013755;28;20022;-70
2021/10/13 07:00:23;;;;;;;81.10;59.97;;;10.30;99.50;;;;;;5012581;28;20407;-71
2021/10/13 07:02:49;;;;;;;85.30;60.25;;;10.30;99.80;;;;;;5012219;28;20068;-69
2021/10/13 07:05:16;;;;;;;85.10;61.10;;;10.30;99.70;;;;;;5012476;28;20480;-70
2021/10/13 07:07:47;;;;;;;86.18;61.88;;;10.30;99.90;;;;;;5030506;28;20037;-71
2021/10/13 07:10:13;;;;;;;82.75;60.55;;;10.30;99.90;;;;;;5032405;28;20033;-70
2021/10/13 07:12:39;;;;;;;85.43;62.90;;;10.20;99.90;;;;;;5032433;28;20132;-71
2021/10/13 07:15:06;;;;;;;78.10;55.85;;;10.20;99.90;;;;;;5033382;28;20108;-71
2021/10/13 07:17:32;;;;;;;77.82;55.70;;;10.20;99.90;;;;;;5033352;28;20030;-70
2021/10/13 07:19:59;;;;;;;79.53;58.72;;;10.20;99.90;;;;;;5032147;28;20021;-71
2021/10/13 07:22:26;;;;;;;79.70;58.45;;;10.20;99.90;;;;;;5032042;28;20025;-71
2021/10/13 07:24:52;;;;;;;83.20;59.85;;;10.10;99.90;;;;;;5032049;28;20135;-71
2021/10/13 07:27:17;;;;;;;85.03;59.63;;;10.10;99.90;;;;;;5031850;28;20061;-71
2021/10/13 07:29:45;;;;;;;85.22;61.03;;;10.10;99.90;;;;;;5031982;28;20095;-71
2021/10/13 07:32:11;;;;;;;80.93;57.60;;;10.10;99.90;;;;;;5031672;28;20025;-71
2021/10/13 07:34:37;;;;;;;77.32;58.13;;;10.10;99.90;;;;;;5033700;28;20030;-71
2021/10/13 07:37:04;;;;;;;75.00;53.67;;;10.10;99.90;;;;;;5033291;28;20523;-71
2021/10/13 07:39:31;;;;;;;81.75;56.60;;;10.10;99.90;;;;;;5031803;28;20480;-70
2021/10/13 07:41:57;;;;;;;76.28;56.05;;;10.10;99.90;;;;;;5033587;28;20026;-71
2021/10/13 07:44:23;;;;;;;81.20;56.85;;;10.00;99.90;;;;;;5036864;28;20036;-72
2021/10/13 07:46:48;;;;;;;71.47;54.33;;;10.00;99.90;;;;;;5035509;28;20034;-73
2021/10/13 07:49:14;;;;;;;78.07;56.45;;;10.00;99.90;;;;;;5051833;28;20479;-71
2021/10/13 07:51:40;;;;;;;74.85;54.25;;;10.00;99.90;;;;;;5056604;28;20031;-71
2021/10/13 07:54:06;;;;;;;76.00;53.97;;;10.00;99.90;;;;;;5056829;28;20021;-70
2021/10/13 07:56:32;;;;;;;72.05;52.65;;;10.00;99.90;;;;;;5055439;28;20029;-70
2021/10/13 07:58:57;;;;;;;76.60;54.75;;;10.00;99.90;;;;;;5056582;28;20029;-71
2021/10/13 08:01:23;;;;;;;73.07;53.10;;;10.00;99.90;;;;;;5055308;28;20460;-72
2021/10/13 08:03:49;;;;;;;66.03;49.88;;;10.00;99.90;;;;;;5054811;28;20079;-70
2021/10/13 08:06:14;;;;;;;73.70;52.25;;;10.00;99.90;;;;;;5053640;28;20041;-71
2021/10/13 08:08:40;;;;;;;70.07;52.72;;;10.00;99.90;;;;;;5056297;28;20087;-71
2021/10/13 08:11:06;;;;;;;67.30;49.80;;;10.00;99.90;;;;;;5056425;28;20021;-71
2021/10/13 08:13:33;;;;;;;67.93;51.10;;;10.00;99.90;;;;;;5054820;28;20029;-72
2021/10/13 08:15:59;;;;;;;73.07;53.97;;;10.00;99.90;;;;;;5055705;28;20087;-73
2021/10/13 08:18:25;;;;;;;73.45;52.85;;;10.00;99.90;;;;;;5055223;28;20028;-71
2021/10/13 08:20:51;;;;;;;69.53;50.10;;;10.00;99.90;;;;;;5056281;28;20455;-71
2021/10/13 08:23:16;;;;;;;69.35;51.22;;;10.00;99.90;;;;;;5054961;28;20123;-72
2021/10/13 08:25:42;;;;;;;68.90;50.15;;;10.00;99.90;;;;;;5055908;28;20442;-72
2021/10/13 08:28:08;;;;;;;66.28;48.15;;;10.00;99.90;;;;;;5054676;28;20029;-74
2021/10/13 08:30:33;;;;;;;65.13;48.72;;;9.90;99.90;;;;;;5056032;28;20052;-71
2021/10/13 08:32:59;;;;;;;65.18;49.33;;;9.90;99.90;;;;;;5055635;28;20042;-72
2021/10/13 08:35:25;;;;;;;63.55;47.58;;;9.90;99.90;;;;;;5054984;28;20467;-71
2021/10/13 08:37:50;;;;;;;67.18;47.85;;;9.90;99.90;;;;;;5055943;28;20543;-70
2021/10/13 08:40:16;;;;;;;64.88;47.22;;;9.90;99.90;;;;;;5054515;28;20037;-71
2021/10/13 08:42:56;;;;;;;63.85;45.90;;;9.90;99.90;;;;;;5054606;28;20025;-72
2021/10/13 08:45:24;;;;;;;61.13;46.33;;;9.90;99.90;;;;;;5055749;28;20029;-71
2021/10/13 08:47:50;;;;;;;58.08;44.28;;;9.90;99.90;;;;;;5054508;28;20028;-70
2021/10/13 08:50:16;;;;;;;61.90;45.17;;;9.90;99.90;;;;;;5054386;28;20374;-71
2021/10/13 08:52:41;;;;;;;54.15;42.83;;;9.90;99.90;;;;;;5055706;28;20070;-71
2021/10/13 08:55:08;;;;;;;59.25;46.58;;;9.90;99.90;;;;;;5054216;28;20025;-74
2021/10/13 08:57:34;;;;;;;55.28;43.30;;;9.80;99.90;;;;;;5054238;28;20029;-71
2021/10/13 09:00:00;;;;;;;52.35;39.60;;;9.80;99.90;;;;;;5053373;28;20063;-73
2021/10/13 09:02:55;;;;;;;51.90;40.20;;;9.80;99.90;;;;;;5034860;28;20029;-71
2021/10/13 09:05:22;;;;;;;55.92;40.88;;;9.80;99.90;;;;;;5036997;28;20049;-71
2021/10/13 09:07:53;;;;;;;54.47;41.60;;;9.80;99.90;;;;;;5054914;28;20043;-74
2021/10/13 09:10:36;;;;;;;51.13;40.30;;;9.90;99.90;;;;;;5053900;28;20024;-71
2021/10/13 09:13:13;;;;;;;61.20;45.30;;;9.90;99.90;;;;;;5055140;28;20024;-72
2021/10/13 09:15:39;;;;;;;63.03;45.75;;;9.90;99.90;;;;;;5054005;28;20037;-71
2021/10/13 09:18:06;;;;;;;61.92;45.70;;;9.90;99.90;;;;;;5054859;28;20115;-72
2021/10/13 09:20:38;;;;;;;53.55;40.75;;;9.90;99.90;;;;;;5054912;28;20031;-74
2021/10/13 09:23:16;;;;;;;53.65;42.10;;;10.00;99.90;;;;;;5055046;28;20039;-72
2021/10/13 09:25:58;;;;;;;59.95;45.78;;;10.00;99.90;;;;;;5055031;28;20025;-71
2021/10/13 09:28:24;;;;;;;57.65;44.92;;;10.00;99.90;;;;;;5053749;28;20048;-71
2021/10/13 09:30:50;;;;;;;57.40;43.25;;;9.90;99.90;;;;;;5068090;28;20467;-69
2021/10/13 09:33:20;;;;;;;54.65;42.42;;;9.90;99.90;;;;;;5073311;28;20059;-70
2021/10/13 09:35:52;;;;;;;55.50;43.00;;;9.90;99.90;;;;;;5074849;28;20060;-71
2021/10/13 09:38:26;;;;;;;53.67;41.63;;;9.90;99.90;;;;;;5073657;28;20021;-70
2021/10/13 09:41:00;;;;;;;56.08;43.38;;;9.90;99.90;;;;;;5075054;28;20366;-71
2021/10/13 09:43:28;;;;;;;54.40;41.10;;;9.90;99.90;;;;;;5073408;28;20477;-71
2021/10/13 09:46:21;;;;;;;50.85;39.47;;;9.90;99.90;;;;;;5074394;28;20028;-71
2021/10/13 09:48:59;;;;;;;55.40;41.28;;;9.80;99.90;;;;;;5058855;28;20494;-72
2021/10/13 09:51:25;;;;;;;55.33;40.72;;;9.90;99.90;;;;;;5054330;28;20052;-71
2021/10/13 09:53:52;;;;;;;50.08;39.15;;;9.80;99.90;;;;;;5053060;28;20472;-70
2021/10/13 09:56:38;;;;;;;49.58;38.75;;;9.90;99.90;;;;;;5054173;28;20036;-71
2021/10/13 09:59:15;;;;;;;49.28;39.05;;;9.80;99.90;;;;;;5053216;28;20033;-71
2021/10/13 10:01:47;;;;;;;48.90;37.72;;;9.90;99.90;;;;;;5052850;28;20035;-71
2021/10/13 10:04:25;;;;;;;50.70;40.13;;;9.90;99.90;;;;;;5065193;28;20360;-70
2021/10/13 10:06:55;;;;;;;52.17;40.22;;;9.90;99.90;;;;;;5073881;28;20028;-69
2021/10/13 10:09:22;;;;;;;49.15;37.97;;;9.90;99.90;;;;;;5056328;28;20479;-70
2021/10/13 10:11:51;;;;;;;53.05;42.10;;;9.90;99.90;;;;;;5056229;28;20024;-73
2021/10/13 10:14:32;;;;;;;48.50;39.35;;;9.90;99.90;;;;;;5056926;28;20033;-71
2021/10/13 10:17:03;;;;;;;51.65;40.60;;;9.90;99.90;;;;;;5073853;28;20033;-71
2021/10/13 10:19:36;;;;;;;48.28;38.45;;;9.90;99.90;;;;;;5074092;28;20085;-71
2021/10/13 10:22:12;;;;;;;51.75;39.60;;;9.90;99.90;;;;;;5055981;28;20020;-71
2021/10/13 10:24:52;;;;;;;46.88;37.40;;;10.00;99.90;;;;;;5073602;28;20476;-71
2021/10/13 10:27:23;;;;;;;45.30;37.67;;;9.90;99.90;;;;;;5056020;28;20390;-71
2021/10/13 10:30:07;;;;;;;44.88;36.17;;;10.00;99.90;;;;;;5055953;28;20050;-70
2021/10/13 10:32:38;;;;;;;45.22;36.50;;;10.00;99.90;;;;;;5073837;28;20028;-71
2021/10/13 10:35:03;;;;;;;47.30;39.25;;;10.00;99.90;;;;;;5055630;28;20024;-71
2021/10/13 10:37:49;;;;;;;47.83;37.85;;;10.10;99.90;;;;;;5073445;28;20502;-70
2021/10/13 10:40:21;;;;;;;46.15;37.08;;;10.00;99.90;;;;;;5055484;28;20505;-70
2021/10/13 10:43:08;;;;;;;46.03;37.00;;;10.10;99.90;;;;;;5055953;28;20028;-73
2021/10/13 10:45:38;;;;;;;42.53;34.50;;;10.00;99.90;;;;;;5045007;28;20036;-71
2021/10/13 10:48:10;;;;;;;45.63;34.28;;;10.00;99.90;;;;;;5035651;28;20068;-73
2021/10/13 10:50:51;;;;;;;44.65;34.95;;;9.90;99.90;;;;;;5053755;28;20456;-70
2021/10/13 10:53:29;;;;;;;47.17;35.10;;;9.90;99.90;;;;;;5072153;28;20031;-71
2021/10/13 10:56:19;;;;;;;41.28;32.58;;;9.90;99.90;;;;;;5055351;28;20056;-71
2021/10/13 10:58:57;;;;;;;39.95;32.38;;;9.90;99.90;;;;;;5067419;28;20478;-71
2021/10/13 11:01:23;;;;;;;39.42;32.72;;;9.90;99.90;;;;;;5093746;28;20024;-70
2021/10/13 11:03:49;;;;;;;42.03;34.20;;;9.90;99.90;;;;;;5093378;28;20079;-70
2021/10/13 11:06:16;;;;;;;42.05;32.83;;;9.90;99.90;;;;;;5075270;28;20040;-70
2021/10/13 11:08:52;;;;;;;38.72;32.45;;;9.90;99.90;;;;;;5093507;28;20036;-71
2021/10/13 11:11:18;;;;;;;37.80;30.50;;;10.00;99.90;;;;;;5093402;28;20033;-71
2021/10/13 11:14:04;;;;;;;37.80;32.03;;;10.00;99.90;;;;;;5093337;28;20071;-71
2021/10/13 11:16:32;;;;;;;37.35;31.17;;;10.00;99.90;;;;;;5076207;28;20449;-70
2021/10/13 11:19:15;;;;;;;41.75;32.63;;;10.00;99.90;;;;;;5097650;28;20050;-71
2021/10/13 11:21:42;;;;;;;44.53;34.83;;;10.00;99.90;;;;;;5072609;28;20029;-71
2021/10/13 11:24:10;;;;;;;45.25;34.15;;;10.00;99.90;;;;;;5059973;28;20094;-71
2021/10/13 11:26:36;;;;;;;42.67;34.13;;;10.00;99.90;;;;;;5059401;28;20033;-69
2021/10/13 11:29:03;;;;;;;42.60;34.97;;;10.00;99.90;;;;;;5059359;28;20390;-70
2021/10/13 11:31:28;;;;;;;42.25;33.05;;;9.90;99.90;;;;;;5066780;28;20037;-69
2021/10/13 11:34:06;;;;;;;43.58;34.42;;;9.90;99.90;;;;;;5077482;28;20025;-71
2021/10/13 11:36:31;;;;;;;42.28;35.05;;;9.90;99.90;;;;;;5058802;28;20123;-69
2021/10/13 11:38:57;;;;;;;42.42;35.00;;;9.90;99.90;;;;;;5059095;28;20048;-72
2021/10/13 11:41:23;;;;;;;40.47;32.58;;;10.00;99.90;;;;;;5076903;28;20032;-71
2021/10/13 11:43:48;;;;;;;42.35;33.05;;;9.90;99.90;;;;;;5077218;28;20371;-68
2021/10/13 11:46:16;;;;;;;40.38;33.60;;;9.90;99.90;;;;;;5076470;28;20036;-70
2021/10/13 11:48:42;;;;;;;38.15;31.05;;;9.90;99.90;;;;;;5076855;28;20367;-71
2021/10/13 11:51:14;;;;;;;46.10;35.97;;;9.90;99.90;;;;;;5058905;28;20035;-71
2021/10/13 11:53:47;;;;;;;44.47;33.47;;;9.90;99.90;;;;;;5058710;28;20394;-70
2021/10/13 11:56:13;;;;;;;43.75;33.92;;;9.90;99.90;;;;;;5058779;28;20024;-71
2021/10/13 11:58:40;;;;;;;47.15;36.90;;;9.90;99.90;;;;;;5079304;28;20034;-71
2021/10/13 12:01:06;;;;;;;44.83;35.40;;;9.90;99.90;;;;;;5064316;28;20029;-70
2021/10/13 12:03:34;;;;;;;46.95;37.03;;;9.90;99.90;;;;;;5058545;28;20425;-70
2021/10/13 12:06:00;;;;;;;48.75;37.67;;;9.90;99.90;;;;;;5058501;28;20048;-71
2021/10/13 12:08:30;;;;;;;45.28;35.33;;;9.90;99.90;;;;;;5058308;28;20082;-71
2021/10/13 12:11:07;;;;;;;45.78;34.97;;;9.90;99.90;;;;;;5058241;28;20028;-71
2021/10/13 12:13:39;;;;;;;43.25;33.30;;;9.90;99.90;;;;;;5059166;28;20025;-73
2021/10/13 12:16:06;;;;;;;43.70;34.60;;;9.90;99.90;;;;;;5058706;28;20463;-71
2021/10/13 12:18:40;;;;;;;44.05;34.22;;;9.90;99.90;;;;;;5058240;28;20032;-71
2021/10/13 12:21:09;;;;;;;40.40;32.22;;;9.90;99.90;;;;;;5058362;28;20029;-70
2021/10/13 12:23:41;;;;;;;38.42;31.13;;;9.90;99.90;;;;;;5076040;28;20059;-71
2021/10/13 12:26:37;;;;;;;39.10;30.58;;;9.90;99.90;;;;;;5058087;28;20028;-71
2021/10/13 12:29:09;;;;;;;39.60;31.05;;;9.90;99.90;;;;;;5087883;28;20491;-71
2021/10/13 12:31:35;;;;;;;41.22;32.85;;;9.90;99.90;;;;;;5077791;28;20616;-71
2021/10/13 12:34:02;;;;;;;35.13;29.33;;;9.90;99.90;;;;;;5078128;28;20079;-72
2021/10/13 12:36:39;;;;;;;38.58;30.13;;;9.90;99.90;;;;;;5078091;28;20032;-74
2021/10/13 12:39:17;;;;;;;36.33;29.70;;;9.90;99.90;;;;;;5096577;28;20020;-73